Time;durP1;ratioP1;P1;durP2;ratioP2;P2;SDS_P1;SDS_P2;PMS_P1;PMS_P2;Temp;Humidity;BMP_temperature;BMP_pressure;BME280_temperature;BME280_humidity;BME280_pressure;Samples;Min_cycle;Max_cycle;Signal;HPM_P1;HPM_P2
2021/08/29 00:02:15;;;;;;;7.30;4.75;;;15.50;96.60;;;;;;5108270;28;20020;-89
2021/08/29 00:04:40;;;;;;;11.02;5.00;;;15.50;96.90;;;;;;5082761;28;20078;-89
2021/08/29 00:07:06;;;;;;;7.75;5.00;;;15.50;96.90;;;;;;5115915;28;20023;-88
2021/08/29 00:09:32;;;;;;;8.80;4.78;;;15.50;97.00;;;;;;5098853;28;20035;-89
2021/08/29 00:11:57;;;;;;;9.75;5.00;;;15.50;97.00;;;;;;5088138;28;20024;-88
2021/08/29 00:14:23;;;;;;;6.95;5.00;;;15.50;97.00;;;;;;5078171;28;20016;-88
2021/08/29 00:16:49;;;;;;;8.00;4.50;;;15.50;97.00;;;;;;5078389;28;20058;-90
2021/08/29 00:19:14;;;;;;;6.70;4.57;;;15.50;96.90;;;;;;5098480;28;20032;-90
2021/08/29 00:21:40;;;;;;;7.75;4.35;;;15.50;97.00;;;;;;5090553;28;20023;-88
2021/08/29 00:24:05;;;;;;;7.63;5.05;;;15.40;97.10;;;;;;5089069;28;20165;-89
2021/08/29 00:26:31;;;;;;;7.03;4.57;;;15.40;97.20;;;;;;5101349;28;20433;-89
2021/08/29 00:28:56;;;;;;;8.18;4.85;;;15.40;97.10;;;;;;5079088;28;20028;-89
2021/08/29 00:31:22;;;;;;;8.30;4.88;;;15.40;97.30;;;;;;5116250;28;20027;-89
2021/08/29 00:33:48;;;;;;;6.65;4.97;;;15.40;97.30;;;;;;5098202;28;20072;-89
2021/08/29 00:36:13;;;;;;;9.77;6.22;;;15.40;97.40;;;;;;5085327;28;20236;-89
2021/08/29 00:38:39;;;;;;;10.02;4.95;;;15.40;97.50;;;;;;5111673;28;20028;-88
2021/08/29 00:41:11;;;;;;;10.82;6.20;;;15.40;97.50;;;;;;5080536;28;20031;-89
2021/08/29 00:43:36;;;;;;;;;;;15.40;97.60;;;;;;5090892;28;20020;-89
2021/08/29 00:46:02;;;;;;;8.20;4.60;;;15.40;97.80;;;;;;5088206;28;19900;-88
2021/08/29 00:48:28;;;;;;;9.00;5.28;;;15.40;97.70;;;;;;5083234;28;20024;-88
2021/08/29 00:50:54;;;;;;;8.32;4.82;;;15.40;97.80;;;;;;5094057;28;20023;-88
2021/08/29 00:53:23;;;;;;;9.65;5.50;;;15.40;97.90;;;;;;5100191;28;20026;-89
2021/08/29 00:55:53;;;;;;;11.73;5.72;;;15.40;97.90;;;;;;5088891;28;20085;-88
2021/08/29 00:58:22;;;;;;;9.15;5.40;;;15.40;97.80;;;;;;5089760;28;20063;-88
2021/08/29 01:00:50;;;;;;;12.43;5.93;;;15.40;97.90;;;;;;5097182;28;20024;-89
2021/08/29 01:03:21;;;;;;;10.52;6.07;;;15.40;98.00;;;;;;5081008;28;20035;-89
2021/08/29 01:06:10;;;;;;;13.57;6.40;;;15.40;98.10;;;;;;5089115;28;20062;-89
2021/08/29 01:08:40;;;;;;;11.05;6.07;;;15.40;98.20;;;;;;5092884;28;20035;-89
2021/08/29 01:11:23;;;;;;;10.15;5.97;;;15.40;98.20;;;;;;5080242;28;20058;-89
2021/08/29 01:13:50;;;;;;;10.10;5.72;;;15.40;98.30;;;;;;5106726;28;20027;-89
2021/08/29 01:16:18;;;;;;;11.05;6.03;;;15.30;98.30;;;;;;5094205;28;20054;-89
2021/08/29 01:18:47;;;;;;;12.85;7.45;;;15.30;98.40;;;;;;5093387;28;20019;-89
2021/08/29 01:21:16;;;;;;;12.30;6.65;;;15.30;98.40;;;;;;5080416;28;20106;-89
2021/08/29 01:23:53;;;;;;;10.45;6.53;;;15.30;98.50;;;;;;5107060;28;20127;-88
2021/08/29 01:26:27;;;;;;;10.65;5.38;;;15.30;98.60;;;;;;5089251;28;20023;-88
2021/08/29 01:29:10;;;;;;;8.63;5.25;;;15.20;98.50;;;;;;5080150;28;20032;-88
2021/08/29 01:31:38;;;;;;;10.77;5.90;;;15.20;98.50;;;;;;5097264;28;20456;-87
2021/08/29 01:34:07;;;;;;;10.52;5.63;;;15.20;98.40;;;;;;5085621;28;20024;-88
2021/08/29 01:36:34;;;;;;;11.88;5.88;;;15.20;98.30;;;;;;5091755;28;20455;-88
2021/08/29 01:39:02;;;;;;;8.98;5.05;;;15.10;98.30;;;;;;5079502;28;20028;-88
2021/08/29 01:41:28;;;;;;;10.68;6.00;;;15.10;98.30;;;;;;5108886;28;20020;-88
2021/08/29 01:43:55;;;;;;;8.27;5.20;;;15.10;98.30;;;;;;5085872;28;20020;-88
2021/08/29 01:46:21;;;;;;;10.95;5.57;;;15.20;98.40;;;;;;5083272;28;20514;-88
2021/08/29 01:48:47;;;;;;;8.35;5.25;;;15.10;98.40;;;;;;5093143;28;20024;-88
2021/08/29 01:51:14;;;;;;;10.65;5.45;;;15.10;98.50;;;;;;5080116;28;20477;-88
2021/08/29 01:53:40;;;;;;;8.52;5.72;;;15.10;98.50;;;;;;5096701;28;20474;-87
2021/08/29 01:56:07;;;;;;;10.93;5.53;;;15.10;98.60;;;;;;5083622;28;20069;-88
2021/08/29 01:58:33;;;;;;;8.35;5.72;;;15.10;98.60;;;;;;5091411;28;20032;-88
2021/08/29 02:01:09;;;;;;;10.13;6.20;;;15.10;98.60;;;;;;5094012;28;20028;-87
2021/08/29 02:03:36;;;;;;;8.63;5.75;;;15.10;98.60;;;;;;5083129;28;20031;-89
2021/08/29 02:06:25;;;;;;;11.23;5.88;;;15.10;98.60;;;;;;5085119;28;20031;-88
2021/08/29 02:09:01;;;;;;;10.43;5.70;;;15.10;98.70;;;;;;5092994;28;20516;-88
2021/08/29 02:11:33;;;;;;;10.32;6.10;;;15.10;98.60;;;;;;5082173;28;20034;-88
2021/08/29 02:14:03;;;;;;;10.88;6.07;;;15.10;98.70;;;;;;5085747;28;20059;-88
2021/08/29 02:16:34;;;;;;;10.75;6.07;;;15.10;98.80;;;;;;5072700;28;20044;-88
2021/08/29 02:19:01;;;;;;;9.10;5.65;;;15.10;98.90;;;;;;5088771;28;20028;-88
2021/08/29 02:21:28;;;;;;;9.30;5.93;;;15.10;98.90;;;;;;5079504;28;20032;-88
2021/08/29 02:23:54;;;;;;;8.93;5.90;;;15.10;98.90;;;;;;5083615;28;20368;-88
2021/08/29 02:26:24;;;;;;;9.73;5.88;;;15.10;98.80;;;;;;5085003;28;20028;-88
2021/08/29 02:28:51;;;;;;;9.60;5.88;;;15.10;98.90;;;;;;5083581;28;20123;-89
2021/08/29 02:31:19;;;;;;;12.60;6.72;;;15.10;98.90;;;;;;5088169;28;20028;-89
2021/08/29 02:33:45;;;;;;;9.25;6.13;;;15.20;98.90;;;;;;5072835;28;20025;-88
2021/08/29 02:36:12;;;;;;;9.77;6.43;;;15.20;99.00;;;;;;5083893;28;20453;-89
2021/08/29 02:38:38;;;;;;;9.05;5.57;;;15.10;99.00;;;;;;5077115;28;20025;-88
2021/08/29 02:41:05;;;;;;;8.27;5.53;;;15.10;99.10;;;;;;5089652;28;20016;-88
2021/08/29 02:43:32;;;;;;;8.85;5.35;;;15.10;99.20;;;;;;5079612;28;20021;-89
2021/08/29 02:45:58;;;;;;;9.32;5.80;;;15.10;99.20;;;;;;5081882;28;20017;-90
2021/08/29 02:48:25;;;;;;;10.27;6.60;;;15.10;99.30;;;;;;5087269;28;20024;-89
2021/08/29 02:50:51;;;;;;;9.95;6.07;;;15.10;99.30;;;;;;5075831;28;20047;-88
2021/08/29 02:53:17;;;;;;;11.10;5.88;;;15.10;99.30;;;;;;5087720;28;20415;-88
2021/08/29 02:55:47;;;;;;;10.07;6.20;;;15.10;99.40;;;;;;5080493;28;20453;-89
2021/08/29 02:58:13;;;;;;;9.35;5.82;;;15.10;99.50;;;;;;5079472;28;20111;-89
2021/08/29 03:00:39;;;;;;;9.00;5.65;;;15.10;99.40;;;;;;5088174;28;20028;-89
2021/08/29 03:03:05;;;;;;;9.82;6.05;;;15.10;99.60;;;;;;5090223;28;20039;-89
2021/08/29 03:05:31;;;;;;;9.65;5.82;;;15.00;99.90;;;;;;5078512;28;20055;-89
2021/08/29 03:07:57;;;;;;;8.85;5.40;;;15.00;99.70;;;;;;5085270;28;20025;-89
2021/08/29 03:10:23;;;;;;;8.82;5.47;;;15.10;99.70;;;;;;5075975;28;20024;-88
2021/08/29 03:12:49;;;;;;;9.48;5.63;;;15.10;99.70;;;;;;5093087;28;20073;-89
2021/08/29 03:15:16;;;;;;;7.95;5.03;;;15.10;99.80;;;;;;5080056;28;20222;-89
2021/08/29 03:17:41;;;;;;;9.32;5.57;;;15.10;99.80;;;;;;5096520;28;20048;-88
2021/08/29 03:20:08;;;;;;;6.22;3.95;;;15.10;99.90;;;;;;5084062;28;20027;-89
2021/08/29 03:22:36;;;;;;;5.43;3.70;;;15.10;99.90;;;;;;5092085;28;20024;-89
2021/08/29 03:25:02;;;;;;;7.15;3.53;;;15.10;99.90;;;;;;5078804;28;20025;-89
2021/08/29 03:27:28;;;;;;;5.47;3.13;;;15.10;99.90;;;;;;5089755;28;20074;-90
2021/08/29 03:29:53;;;;;;;3.50;2.88;;;15.20;99.90;;;;;;5085305;28;20027;-89
2021/08/29 03:32:20;;;;;;;3.63;2.58;;;15.10;99.80;;;;;;5096418;28;20365;-89
2021/08/29 03:34:48;;;;;;;4.88;3.10;;;15.20;99.90;;;;;;5078648;28;20021;-89
2021/08/29 03:37:15;;;;;;;4.32;2.90;;;15.20;99.80;;;;;;5091868;28;20090;-87
2021/08/29 03:39:41;;;;;;;4.20;2.90;;;15.20;99.70;;;;;;5083414;28;20024;-87
2021/08/29 03:42:08;;;;;;;4.60;2.70;;;15.20;99.80;;;;;;5084003;28;20059;-87
2021/08/29 03:44:34;;;;;;;5.57;3.17;;;15.20;99.90;;;;;;5090514;28;20027;-86
2021/08/29 03:47:00;;;;;;;3.75;2.70;;;15.30;99.90;;;;;;5078671;28;20021;-88
2021/08/29 03:49:25;;;;;;;3.00;2.47;;;15.10;99.90;;;;;;5096868;28;20026;-87
2021/08/29 03:51:51;;;;;;;3.67;2.40;;;15.20;99.90;;;;;;5086614;28;20028;-87
2021/08/29 03:54:18;;;;;;;3.67;2.50;;;15.20;99.80;;;;;;5087796;28;20024;-87
2021/08/29 03:56:46;;;;;;;2.83;2.30;;;15.10;99.90;;;;;;5079984;28;20031;-88
2021/08/29 03:59:12;;;;;;;4.32;2.88;;;15.10;99.90;;;;;;5087169;28;20449;-88
2021/08/29 04:01:37;;;;;;;4.70;2.90;;;15.10;99.90;;;;;;5095830;28;20020;-88
2021/08/29 04:04:03;;;;;;;3.60;2.72;;;15.10;99.90;;;;;;5083977;28;20023;-88
2021/08/29 04:06:32;;;;;;;4.30;2.88;;;15.10;99.90;;;;;;5089618;28;20415;-88
2021/08/29 04:09:07;;;;;;;3.45;2.63;;;15.10;99.90;;;;;;5078809;28;20024;-88
2021/08/29 04:11:34;;;;;;;5.03;2.55;;;15.10;99.90;;;;;;5088869;28;20111;-85
2021/08/29 04:14:00;;;;;;;2.92;2.25;;;15.10;99.90;;;;;;5074383;28;20028;-85
2021/08/29 04:16:27;;;;;;;3.80;2.10;;;15.10;99.90;;;;;;5088571;28;20434;-88
2021/08/29 04:18:53;;;;;;;3.13;1.80;;;15.10;99.90;;;;;;5093242;28;20020;-85
2021/08/29 04:21:25;;;;;;;2.22;1.70;;;15.10;99.90;;;;;;5074495;28;20056;-86
2021/08/29 04:23:51;;;;;;;;;;;15.20;99.90;;;;;;5084365;28;20068;-87
2021/08/29 04:26:17;;;;;;;1.80;1.42;;;15.20;99.90;;;;;;5081655;28;20019;-85
2021/08/29 04:28:43;;;;;;;2.90;1.70;;;15.30;99.90;;;;;;5090930;28;20024;-86
2021/08/29 04:31:15;;;;;;;1.67;1.30;;;15.20;99.90;;;;;;5091033;28;20074;-86
2021/08/29 04:33:41;;;;;;;2.15;1.60;;;15.30;99.90;;;;;;5075617;28;20050;-85
2021/08/29 04:36:08;;;;;;;1.73;1.52;;;15.20;99.90;;;;;;5085298;28;20457;-85
2021/08/29 04:38:34;;;;;;;3.70;1.58;;;15.20;99.90;;;;;;5079579;28;20025;-85
2021/08/29 04:41:00;;;;;;;2.00;1.50;;;15.20;99.90;;;;;;5090629;28;20020;-86
2021/08/29 04:43:26;;;;;;;1.90;1.50;;;15.30;99.90;;;;;;5080264;28;20024;-86
2021/08/29 04:45:52;;;;;;;3.63;1.58;;;15.30;99.90;;;;;;5085492;28;20037;-84
2021/08/29 04:48:18;;;;;;;3.40;1.63;;;15.30;99.90;;;;;;5086512;28;20046;-85
2021/08/29 04:50:44;;;;;;;2.38;1.88;;;15.30;99.90;;;;;;5078898;28;20450;-86
2021/08/29 04:53:09;;;;;;;3.70;1.90;;;15.20;99.90;;;;;;5076929;28;20031;-85
2021/08/29 04:55:35;;;;;;;3.15;2.17;;;15.20;99.90;;;;;;5087310;28;20032;-86
2021/08/29 04:58:00;;;;;;;3.55;2.28;;;15.30;99.90;;;;;;5085205;28;20059;-85
2021/08/29 05:00:26;;;;;;;3.53;2.08;;;15.30;99.90;;;;;;5081355;28;20054;-86
2021/08/29 05:02:52;;;;;;;3.13;2.33;;;15.30;99.90;;;;;;5090617;28;20031;-86
2021/08/29 05:05:18;;;;;;;3.00;2.60;;;15.30;99.90;;;;;;5078332;28;20020;-86
2021/08/29 05:07:43;;;;;;;2.95;2.33;;;15.30;99.90;;;;;;5086979;28;20135;-88
2021/08/29 05:10:09;;;;;;;2.75;2.33;;;15.40;99.90;;;;;;5086150;28;20031;-88
2021/08/29 05:12:35;;;;;;;3.97;2.13;;;15.40;99.90;;;;;;5078744;28;20364;-89
2021/08/29 05:15:01;;;;;;;4.45;2.65;;;15.40;99.90;;;;;;5075720;28;20044;-88
2021/08/29 05:17:26;;;;;;;3.83;2.15;;;15.30;99.80;;;;;;5087939;28;20495;-88
2021/08/29 05:19:52;;;;;;;2.60;1.60;;;15.30;99.80;;;;;;5083121;28;20020;-88
2021/08/29 05:22:17;;;;;;;2.13;1.60;;;15.40;99.70;;;;;;5081829;28;20028;-88
2021/08/29 05:24:43;;;;;;;3.42;1.48;;;15.40;99.70;;;;;;5090337;28;20027;-88
2021/08/29 05:27:09;;;;;;;2.22;1.40;;;15.30;99.60;;;;;;5076363;28;20024;-88
2021/08/29 05:29:34;;;;;;;3.03;1.42;;;15.30;99.50;;;;;;5093622;28;20028;-88
2021/08/29 05:32:00;;;;;;;2.08;1.48;;;15.40;99.60;;;;;;5082725;28;20024;-88
2021/08/29 05:34:26;;;;;;;1.92;1.40;;;15.40;99.60;;;;;;5087566;28;20360;-87
2021/08/29 05:36:51;;;;;;;1.63;1.20;;;15.40;99.60;;;;;;5076843;28;20070;-88
2021/08/29 05:39:17;;;;;;;2.13;1.60;;;15.40;99.60;;;;;;5088600;28;20052;-89
2021/08/29 05:41:43;;;;;;;2.83;1.40;;;15.40;99.50;;;;;;5081807;28;20016;-87
2021/08/29 05:44:08;;;;;;;2.72;1.40;;;15.40;99.50;;;;;;5081676;28;20021;-87
2021/08/29 05:46:34;;;;;;;4.72;1.65;;;15.50;99.50;;;;;;5089757;28;20016;-87
2021/08/29 05:48:59;;;;;;;3.58;1.33;;;15.40;99.50;;;;;;5075922;28;20056;-88
2021/08/29 05:51:25;;;;;;;1.45;1.10;;;15.40;99.50;;;;;;5087637;28;20044;-88
2021/08/29 05:53:51;;;;;;;2.17;1.50;;;15.50;99.50;;;;;;5082102;28;20027;-88
2021/08/29 05:56:16;;;;;;;2.40;1.38;;;15.50;99.50;;;;;;5079915;28;20073;-89
2021/08/29 05:58:42;;;;;;;3.28;1.30;;;15.50;99.60;;;;;;5090459;28;20444;-89
2021/08/29 06:01:15;;;;;;;1.80;1.40;;;15.50;99.60;;;;;;5072937;28;20473;-88
2021/08/29 06:03:41;;;;;;;2.38;1.30;;;15.60;99.70;;;;;;5073261;28;20025;-88
2021/08/29 06:06:06;;;;;;;2.25;1.30;;;15.60;99.60;;;;;;5084090;28;20050;-88
2021/08/29 06:08:32;;;;;;;1.90;1.42;;;15.60;99.60;;;;;;5078909;28;20109;-88
2021/08/29 06:10:58;;;;;;;1.25;1.13;;;15.60;99.60;;;;;;5091943;28;20020;-88
2021/08/29 06:13:24;;;;;;;2.17;1.40;;;15.60;99.50;;;;;;5087529;28;20032;-87
2021/08/29 06:15:50;;;;;;;1.60;1.10;;;15.60;99.50;;;;;;5084700;28;20097;-88
2021/08/29 06:18:15;;;;;;;1.25;0.93;;;15.60;99.50;;;;;;5090470;28;20342;-88
2021/08/29 06:20:41;;;;;;;1.38;1.08;;;15.70;99.40;;;;;;5080333;28;20032;-88
2021/08/29 06:23:07;;;;;;;2.38;1.10;;;15.70;99.30;;;;;;5080428;28;20020;-88
2021/08/29 06:25:33;;;;;;;2.33;1.90;;;15.70;99.30;;;;;;5086364;28;20024;-88
2021/08/29 06:27:59;;;;;;;3.97;2.50;;;15.70;99.20;;;;;;5080354;28;20530;-89
2021/08/29 06:30:24;;;;;;;1.92;1.55;;;15.80;99.20;;;;;;5091697;28;20036;-88
2021/08/29 06:32:50;;;;;;;1.55;1.33;;;15.80;99.10;;;;;;5099413;28;20024;-88
2021/08/29 06:35:16;;;;;;;2.28;1.42;;;15.80;99.20;;;;;;5089510;28;20482;-88
2021/08/29 06:37:42;;;;;;;6.82;3.60;;;15.90;99.10;;;;;;5096390;28;20066;-88
2021/08/29 06:40:08;;;;;;;4.70;3.78;;;15.90;99.10;;;;;;5095812;28;20035;-88
2021/08/29 06:42:34;;;;;;;1.73;1.60;;;15.90;99.10;;;;;;5095284;28;20028;-88
2021/08/29 06:44:59;;;;;;;2.60;1.50;;;15.90;99.00;;;;;;5113915;28;20034;-90
2021/08/29 06:47:25;;;;;;;1.45;1.02;;;16.00;99.00;;;;;;5078615;28;20063;-88
2021/08/29 06:49:51;;;;;;;2.15;1.17;;;15.90;98.90;;;;;;5101178;28;20077;-89
2021/08/29 06:52:16;;;;;;;2.20;0.85;;;15.90;99.00;;;;;;5081592;28;20738;-90
2021/08/29 06:54:42;;;;;;;0.80;0.80;;;16.00;98.90;;;;;;5086973;28;20028;-90
2021/08/29 06:57:08;;;;;;;1.00;0.90;;;16.00;98.90;;;;;;5079286;28;20111;-89
2021/08/29 06:59:33;;;;;;;1.05;0.90;;;16.00;98.80;;;;;;5085512;28;20035;-88
2021/08/29 07:01:59;;;;;;;4.20;0.90;;;16.10;98.70;;;;;;5078667;28;20184;-87
2021/08/29 07:04:24;;;;;;;1.40;1.02;;;16.10;98.70;;;;;;5086506;28;20039;-86
2021/08/29 07:06:50;;;;;;;2.60;0.90;;;16.10;98.70;;;;;;5091833;28;20114;-86
2021/08/29 07:09:16;;;;;;;1.10;1.00;;;16.10;98.60;;;;;;5079609;28;20176;-87
2021/08/29 07:11:41;;;;;;;3.30;1.00;;;16.10;98.60;;;;;;5078999;28;20040;-88
2021/08/29 07:14:07;;;;;;;0.90;0.80;;;16.00;98.60;;;;;;5080616;28;20456;-87
2021/08/29 07:16:32;;;;;;;2.97;1.30;;;16.00;98.70;;;;;;5099292;28;20048;-86
2021/08/29 07:18:58;;;;;;;2.10;0.90;;;16.00;98.60;;;;;;5093747;28;20417;-89
2021/08/29 07:21:24;;;;;;;2.30;0.85;;;16.10;98.60;;;;;;5087355;28;20403;-88
2021/08/29 07:23:50;;;;;;;6.13;1.30;;;16.10;98.40;;;;;;5089386;28;20027;-89
2021/08/29 07:26:16;;;;;;;2.30;1.80;;;16.10;98.50;;;;;;5087410;28;20289;-88
2021/08/29 07:28:43;;;;;;;3.40;2.58;;;16.10;98.40;;;;;;5076055;28;20036;-88
2021/08/29 07:31:09;;;;;;;2.72;1.27;;;16.10;98.30;;;;;;5086146;28;20055;-89
2021/08/29 07:33:34;;;;;;;2.05;1.10;;;16.10;98.40;;;;;;5084618;28;20051;-89
2021/08/29 07:36:00;;;;;;;1.52;1.02;;;16.20;98.40;;;;;;5083648;28;20047;-89
2021/08/29 07:38:26;;;;;;;2.13;0.80;;;16.20;98.30;;;;;;5084757;28;20024;-88
2021/08/29 07:40:52;;;;;;;3.05;0.90;;;16.30;98.20;;;;;;5089005;28;20081;-87
2021/08/29 07:43:17;;;;;;;1.17;0.90;;;16.30;98.20;;;;;;5097692;28;20023;-88
2021/08/29 07:45:43;;;;;;;1.23;1.13;;;16.30;98.50;;;;;;5095970;28;20030;-89
2021/08/29 07:48:09;;;;;;;1.13;0.93;;;16.30;98.10;;;;;;5095650;28;20036;-90
2021/08/29 07:50:34;;;;;;;2.10;0.90;;;16.40;98.20;;;;;;5114091;28;20030;-80
2021/08/29 07:53:00;;;;;;;1.17;0.93;;;16.30;98.20;;;;;;5081452;28;20024;-82
2021/08/29 07:55:26;;;;;;;1.00;0.88;;;16.30;98.30;;;;;;5099123;28;20031;-84
2021/08/29 07:57:52;;;;;;;1.50;0.88;;;16.40;98.30;;;;;;5098075;28;20031;-85
2021/08/29 08:00:18;;;;;;;0.70;0.60;;;16.40;98.30;;;;;;5098410;28;20856;-83
2021/08/29 08:02:43;;;;;;;0.98;0.80;;;16.40;98.10;;;;;;5117132;28;20024;-83
2021/08/29 08:05:09;;;;;;;3.50;0.90;;;16.40;97.90;;;;;;5097976;28;20110;-84
2021/08/29 08:07:35;;;;;;;1.98;1.05;;;16.50;97.90;;;;;;5098064;28;20115;-87
2021/08/29 08:10:00;;;;;;;2.58;0.73;;;16.40;98.00;;;;;;5098320;28;20452;-84
2021/08/29 08:12:26;;;;;;;1.00;0.70;;;16.40;97.90;;;;;;5094255;28;20027;-87
2021/08/29 08:14:51;;;;;;;0.93;0.82;;;16.50;97.70;;;;;;5078194;28;20028;-86
2021/08/29 08:17:17;;;;;;;0.80;0.75;;;16.50;97.50;;;;;;5063391;28;20056;-87
2021/08/29 08:19:43;;;;;;;1.15;0.80;;;16.60;97.40;;;;;;5082363;28;20122;-87
2021/08/29 08:22:08;;;;;;;0.73;0.65;;;16.60;97.50;;;;;;5070894;28;20366;-88
2021/08/29 08:24:34;;;;;;;1.63;0.90;;;16.60;97.50;;;;;;5070198;28;20063;-86
2021/08/29 08:27:00;;;;;;;1.05;0.70;;;16.70;97.10;;;;;;5080695;28;20028;-86
2021/08/29 08:29:26;;;;;;;1.23;1.00;;;16.70;97.10;;;;;;5064333;28;20036;-85
2021/08/29 08:31:52;;;;;;;2.03;0.93;;;16.80;97.00;;;;;;5073209;28;20351;-87
2021/08/29 08:34:18;;;;;;;1.25;1.05;;;16.80;96.80;;;;;;5060245;28;20025;-87
2021/08/29 08:36:44;;;;;;;0.73;0.73;;;16.90;96.60;;;;;;5070760;28;20024;-87
2021/08/29 08:39:09;;;;;;;0.80;0.80;;;16.90;96.60;;;;;;5067626;28;20473;-87
2021/08/29 08:41:35;;;;;;;1.30;0.75;;;16.90;96.60;;;;;;5077052;28;20030;-87
2021/08/29 08:44:01;;;;;;;0.77;0.68;;;16.90;96.60;;;;;;5072354;28;20030;-85
2021/08/29 08:46:27;;;;;;;1.73;1.20;;;16.90;96.70;;;;;;5065192;28;20074;-87
2021/08/29 08:48:53;;;;;;;1.77;0.80;;;16.90;96.60;;;;;;5069632;28;20024;-86
2021/08/29 08:51:28;;;;;;;0.90;0.70;;;16.80;96.60;;;;;;5093497;28;20020;-85
2021/08/29 08:53:55;;;;;;;1.17;0.90;;;16.80;96.70;;;;;;5065815;28;20107;-85
2021/08/29 08:56:22;;;;;;;0.90;0.75;;;16.80;96.60;;;;;;5078554;28;20048;-86
2021/08/29 08:58:48;;;;;;;1.27;0.80;;;16.90;96.70;;;;;;5060055;28;20064;-87
2021/08/29 09:01:15;;;;;;;2.10;0.90;;;16.90;96.70;;;;;;5061909;28;20032;-84
2021/08/29 09:03:41;;;;;;;0.95;0.80;;;17.00;96.70;;;;;;5090534;28;20090;-84
2021/08/29 09:06:08;;;;;;;1.20;0.80;;;17.10;96.40;;;;;;5075102;28;20040;-86
2021/08/29 09:08:35;;;;;;;1.25;0.70;;;17.20;96.10;;;;;;5063146;28;20024;-86
2021/08/29 09:11:02;;;;;;;1.70;0.60;;;17.20;95.90;;;;;;5073251;28;20028;-85
2021/08/29 09:13:47;;;;;;;0.80;0.70;;;17.30;95.80;;;;;;5076611;28;20384;-85
2021/08/29 09:16:14;;;;;;;1.38;0.88;;;17.40;96.00;;;;;;5087098;28;20054;-86
2021/08/29 09:18:51;;;;;;;1.77;0.88;;;17.40;96.00;;;;;;5085800;28;20028;-85
2021/08/29 09:21:27;;;;;;;1.55;0.75;;;17.50;95.90;;;;;;5081248;28;20286;-85
2021/08/29 09:23:54;;;;;;;1.00;0.70;;;17.50;95.40;;;;;;5107767;28;20038;-85
2021/08/29 09:26:22;;;;;;;3.55;2.03;;;17.40;95.20;;;;;;5090827;28;20027;-86
2021/08/29 09:28:49;;;;;;;3.83;2.80;;;17.50;95.30;;;;;;5089430;28;20525;-86
2021/08/29 09:31:15;;;;;;;2.28;1.88;;;17.50;95.50;;;;;;5105345;28;20130;-90
2021/08/29 09:33:41;;;;;;;1.73;1.00;;;17.60;95.30;;;;;;5115162;28;20080;-87
2021/08/29 09:36:10;;;;;;;0.77;0.75;;;17.70;95.20;;;;;;5096009;28;20020;-89
2021/08/29 09:38:38;;;;;;;0.80;0.80;;;17.70;95.40;;;;;;5076925;28;20028;-89
2021/08/29 09:41:04;;;;;;;1.33;1.17;;;17.80;94.90;;;;;;5086144;28;20473;-86
2021/08/29 09:43:37;;;;;;;1.20;1.10;;;17.70;95.00;;;;;;5083086;28;20028;-84
2021/08/29 09:46:07;;;;;;;1.30;1.13;;;17.70;95.00;;;;;;5111865;28;20029;-87
2021/08/29 09:48:33;;;;;;;1.30;1.20;;;17.70;95.10;;;;;;5098533;28;20027;-85
2021/08/29 09:50:58;;;;;;;1.15;1.05;;;17.70;95.20;;;;;;5093957;28;20093;-86
2021/08/29 09:53:24;;;;;;;2.95;1.40;;;17.60;95.20;;;;;;5095807;28;20024;-86
2021/08/29 09:55:50;;;;;;;1.52;1.20;;;17.60;95.10;;;;;;5078540;28;20031;-84
2021/08/29 09:58:25;;;;;;;3.67;1.40;;;17.60;95.10;;;;;;5094219;28;20028;-84
2021/08/29 10:01:13;;;;;;;1.77;1.50;;;17.50;95.20;;;;;;5076275;28;20032;-89
2021/08/29 10:03:46;;;;;;;1.50;1.40;;;17.60;95.40;;;;;;5091471;28;20038;-86
2021/08/29 10:06:19;;;;;;;1.55;1.35;;;17.60;95.50;;;;;;5083908;28;20376;-86
2021/08/29 10:08:57;;;;;;;1.52;1.42;;;17.50;96.00;;;;;;5083119;28;20016;-87
2021/08/29 10:11:25;;;;;;;1.77;1.40;;;17.50;95.80;;;;;;5088602;28;20027;-86
2021/08/29 10:13:52;;;;;;;4.05;1.45;;;17.50;95.80;;;;;;5089923;28;20142;-86
2021/08/29 10:16:19;;;;;;;2.88;1.88;;;17.50;96.10;;;;;;5079810;28;20526;-86
2021/08/29 10:18:50;;;;;;;2.80;1.70;;;17.40;96.40;;;;;;5075254;28;20032;-86
2021/08/29 10:21:18;;;;;;;2.05;1.50;;;17.40;96.50;;;;;;5085830;28;20025;-82
2021/08/29 10:23:46;;;;;;;1.98;1.60;;;17.30;96.40;;;;;;5091228;28;20080;-82
2021/08/29 10:26:14;;;;;;;2.50;1.60;;;17.30;96.50;;;;;;5092857;28;20031;-84
2021/08/29 10:28:50;;;;;;;2.75;1.70;;;17.30;96.50;;;;;;5077190;28;20048;-84
2021/08/29 10:31:22;;;;;;;2.17;1.63;;;17.20;96.40;;;;;;5080299;28;20499;-84
2021/08/29 10:33:49;;;;;;;3.35;2.47;;;17.20;96.40;;;;;;5073709;28;20039;-84
2021/08/29 10:36:20;;;;;;;2.08;1.52;;;17.10;96.80;;;;;;5087271;28;20028;-84
2021/08/29 10:38:47;;;;;;;2.60;1.98;;;17.00;96.90;;;;;;5092648;28;20077;-83
2021/08/29 10:41:17;;;;;;;3.70;1.92;;;17.00;96.80;;;;;;5072697;28;20150;-84
2021/08/29 10:43:44;;;;;;;2.67;1.88;;;17.00;97.00;;;;;;5077239;28;20023;-87
2021/08/29 10:46:10;;;;;;;1.63;1.52;;;17.00;96.90;;;;;;5086541;28;20047;-87
2021/08/29 10:48:39;;;;;;;1.88;1.58;;;16.90;97.00;;;;;;5072628;28;20440;-85
2021/08/29 10:51:07;;;;;;;2.40;1.80;;;16.90;97.00;;;;;;5074018;28;20032;-87
2021/08/29 10:53:36;;;;;;;3.65;2.03;;;16.90;97.10;;;;;;5092813;28;20024;-86
2021/08/29 10:56:17;;;;;;;2.70;1.83;;;16.90;97.10;;;;;;5092364;28;20081;-86
2021/08/29 10:58:47;;;;;;;2.80;2.10;;;16.90;97.30;;;;;;5092772;28;20032;-85
2021/08/29 11:01:46;;;;;;;2.83;2.03;;;16.90;97.30;;;;;;5093185;28;20287;-87
2021/08/29 11:04:21;;;;;;;2.70;2.00;;;16.90;97.50;;;;;;5059719;28;20032;-86
2021/08/29 11:06:57;;;;;;;2.88;2.00;;;16.90;97.30;;;;;;5084643;28;20032;-86
2021/08/29 11:09:32;;;;;;;3.35;2.30;;;16.80;97.00;;;;;;5092557;28;20024;-85
2021/08/29 11:12:05;;;;;;;3.45;2.53;;;16.90;97.10;;;;;;5090741;28;20340;-85
2021/08/29 11:14:49;;;;;;;2.83;2.10;;;16.80;97.00;;;;;;5079415;28;20024;-84
2021/08/29 11:17:23;;;;;;;4.70;2.08;;;16.80;97.20;;;;;;5071735;28;20080;-87
2021/08/29 11:19:55;;;;;;;4.20;2.13;;;16.80;97.10;;;;;;5072631;28;20163;-87
2021/08/29 11:22:25;;;;;;;2.33;1.90;;;16.90;97.20;;;;;;5080465;28;20124;-82
2021/08/29 11:24:56;;;;;;;3.80;2.20;;;16.90;97.10;;;;;;5080546;28;20040;-84
2021/08/29 11:27:33;;;;;;;3.03;1.92;;;17.00;97.10;;;;;;5089479;28;20025;-86
2021/08/29 11:30:06;;;;;;;4.82;2.42;;;17.10;97.00;;;;;;5092459;28;20047;-87
2021/08/29 11:32:32;;;;;;;4.20;2.38;;;17.10;97.00;;;;;;5096066;28;20034;-86
2021/08/29 11:35:05;;;;;;;4.47;2.30;;;17.10;97.30;;;;;;5081414;28;20457;-85
2021/08/29 11:37:31;;;;;;;3.83;2.40;;;17.00;97.20;;;;;;5089944;28;20036;-87
2021/08/29 11:40:01;;;;;;;3.28;2.40;;;17.00;96.90;;;;;;5091924;28;20548;-86
2021/08/29 11:42:28;;;;;;;4.55;2.45;;;17.00;96.90;;;;;;5092846;28;20024;-83
2021/08/29 11:44:54;;;;;;;4.35;2.70;;;17.00;97.10;;;;;;5090264;28;20029;-83
2021/08/29 11:47:25;;;;;;;3.55;2.70;;;17.10;97.00;;;;;;5087108;28;20036;-84
2021/08/29 11:49:56;;;;;;;4.38;2.40;;;17.10;97.00;;;;;;5094993;28;20128;-82
2021/08/29 11:52:32;;;;;;;3.70;2.53;;;17.10;96.70;;;;;;5090741;28;20439;-82
2021/08/29 11:55:09;;;;;;;4.47;2.67;;;17.10;96.50;;;;;;5087555;28;20020;-86
2021/08/29 11:57:53;;;;;;;7.50;4.70;;;17.00;96.40;;;;;;5089594;28;20640;-88
2021/08/29 12:00:23;;;;;;;4.05;3.03;;;17.00;96.60;;;;;;5079209;28;20047;-85
2021/08/29 12:02:53;;;;;;;5.25;3.05;;;17.10;96.20;;;;;;5079238;28;20028;-87
2021/08/29 12:05:19;;;;;;;4.05;3.13;;;17.10;96.30;;;;;;5078741;28;20036;-85
2021/08/29 12:08:05;;;;;;;4.32;3.22;;;17.10;96.40;;;;;;5095965;28;20028;-86
2021/08/29 12:10:31;;;;;;;5.22;3.13;;;17.10;96.60;;;;;;5080184;28;20492;-88
2021/08/29 12:12:59;;;;;;;4.35;2.90;;;17.10;96.50;;;;;;5077280;28;20036;-87
2021/08/29 12:15:26;;;;;;;5.05;3.00;;;17.00;96.60;;;;;;5076865;28;20077;-87
2021/08/29 12:18:02;;;;;;;5.30;3.03;;;17.00;96.60;;;;;;5090162;28;20054;-87
2021/08/29 12:20:29;;;;;;;6.00;3.30;;;17.00;96.90;;;;;;5086406;28;20062;-91
2021/08/29 12:23:08;;;;;;;5.13;3.03;;;17.00;96.80;;;;;;5095225;28;20039;-85
2021/08/29 12:25:34;;;;;;;4.95;3.50;;;17.00;96.50;;;;;;5094869;28;20028;-85
2021/08/29 12:28:11;;;;;;;5.45;3.25;;;17.00;96.60;;;;;;5088985;28;20031;-88
2021/08/29 12:30:37;;;;;;;5.78;3.30;;;16.90;96.90;;;;;;5091574;28;20541;-90
2021/08/29 12:33:15;;;;;;;4.38;3.42;;;16.90;97.10;;;;;;5093831;28;20032;-87
2021/08/29 12:35:42;;;;;;;5.60;3.65;;;16.90;97.00;;;;;;5084440;28;20032;-89
2021/08/29 12:38:19;;;;;;;4.60;3.40;;;16.90;96.90;;;;;;5089044;28;20020;-87
2021/08/29 12:40:45;;;;;;;4.40;3.25;;;16.90;96.80;;;;;;5083976;28;20054;-88
2021/08/29 12:43:11;;;;;;;5.75;3.45;;;16.90;96.70;;;;;;5079049;28;20108;-82
2021/08/29 12:45:37;;;;;;;5.00;3.30;;;16.90;96.70;;;;;;5085964;28;20029;-83
2021/08/29 12:48:03;;;;;;;5.55;3.20;;;16.90;96.80;;;;;;5073878;28;20029;-85
2021/08/29 12:50:29;;;;;;;4.70;3.20;;;16.90;96.80;;;;;;5084556;28;20032;-83